sensor_id;sensor_type;location;lat;lon;timestamp;temperature;humidity
2763;DHT22;1389;51.490;7.338;2023-04-03T00:01:39;2.70;91.50
2763;DHT22;1389;51.490;7.338;2023-04-03T00:04:06;2.60;91.30
2763;DHT22;1389;51.490;7.338;2023-04-03T00:06:32;2.60;91.40
2763;DHT22;1389;51.490;7.338;2023-04-03T00:08:59;2.60;91.40
2763;DHT22;1389;51.490;7.338;2023-04-03T00:11:25;2.60;91.30
2763;DHT22;1389;51.490;7.338;2023-04-03T00:13:52;2.50;91.40
2763;DHT22;1389;51.490;7.338;2023-04-03T00:16:18;2.40;91.50
2763;DHT22;1389;51.490;7.338;2023-04-03T00:18:44;2.40;91.50
2763;DHT22;1389;51.490;7.338;2023-04-03T00:21:12;2.40;91.30
2763;DHT22;1389;51.490;7.338;2023-04-03T00:23:38;2.40;91.60
2763;DHT22;1389;51.490;7.338;2023-04-03T00:26:04;2.40;91.70
2763;DHT22;1389;51.490;7.338;2023-04-03T00:28:30;2.40;91.50
2763;DHT22;1389;51.490;7.338;2023-04-03T00:30:56;2.40;91.60
2763;DHT22;1389;51.490;7.338;2023-04-03T00:33:22;2.40;91.60
2763;DHT22;1389;51.490;7.338;2023-04-03T00:35:50;2.40;91.70
2763;DHT22;1389;51.490;7.338;2023-04-03T00:38:17;2.40;91.70
2763;DHT22;1389;51.490;7.338;2023-04-03T00:40:45;2.30;91.70
2763;DHT22;1389;51.490;7.338;2023-04-03T00:43:14;2.30;91.50
2763;DHT22;1389;51.490;7.338;2023-04-03T00:45:43;2.30;91.40
2763;DHT22;1389;51.490;7.338;2023-04-03T00:48:39;2.30;91.40
2763;DHT22;1389;51.490;7.338;2023-04-03T00:51:10;2.30;91.70
2763;DHT22;1389;51.490;7.338;2023-04-03T00:53:40;2.30;91.80
2763;DHT22;1389;51.490;7.338;2023-04-03T00:56:13;2.20;91.90
2763;DHT22;1389;51.490;7.338;2023-04-03T00:58:45;2.20;91.90
2763;DHT22;1389;51.490;7.338;2023-04-03T01:01:16;2.20;92.10
2763;DHT22;1389;51.490;7.338;2023-04-03T01:03:44;2.20;91.80
2763;DHT22;1389;51.490;7.338;2023-04-03T01:06:13;2.20;91.90
2763;DHT22;1389;51.490;7.338;2023-04-03T01:08:42;2.20;92.20
2763;DHT22;1389;51.490;7.338;2023-04-03T01:11:08;2.10;92.20
2763;DHT22;1389;51.490;7.338;2023-04-03T01:13:34;2.10;92.30
2763;DHT22;1389;51.490;7.338;2023-04-03T01:16:02;2.10;92.40
2763;DHT22;1389;51.490;7.338;2023-04-03T01:18:29;2.10;92.20
2763;DHT22;1389;51.490;7.338;2023-04-03T01:24:08;2.10;92.20
2763;DHT22;1389;51.490;7.338;2023-04-03T01:26:35;2.10;92.30
2763;DHT22;1389;51.490;7.338;2023-04-03T01:29:02;2.10;92.50
2763;DHT22;1389;51.490;7.338;2023-04-03T01:31:50;2.10;92.40
2763;DHT22;1389;51.490;7.338;2023-04-03T01:34:16;2.10;92.50
2763;DHT22;1389;51.490;7.338;2023-04-03T01:36:42;2.10;92.50
2763;DHT22;1389;51.490;7.338;2023-04-03T01:39:08;2.10;92.40
2763;DHT22;1389;51.490;7.338;2023-04-03T01:41:35;2.10;92.50
2763;DHT22;1389;51.490;7.338;2023-04-03T01:44:01;2.10;92.60
2763;DHT22;1389;51.490;7.338;2023-04-03T01:46:27;2.10;92.30
2763;DHT22;1389;51.490;7.338;2023-04-03T01:48:53;2.10;92.20
2763;DHT22;1389;51.490;7.338;2023-04-03T01:51:19;2.10;92.10
2763;DHT22;1389;51.490;7.338;2023-04-03T01:53:45;2.10;92.20
2763;DHT22;1389;51.490;7.338;2023-04-03T01:56:11;2.10;92.20
2763;DHT22;1389;51.490;7.338;2023-04-03T01:58:37;2.20;92.10
2763;DHT22;1389;51.490;7.338;2023-04-03T02:01:04;2.20;92.10
2763;DHT22;1389;51.490;7.338;2023-04-03T02:03:31;2.20;92.20
2763;DHT22;1389;51.490;7.338;2023-04-03T02:05:58;2.20;92.30
2763;DHT22;1389;51.490;7.338;2023-04-03T02:08:24;2.20;92.20
2763;DHT22;1389;51.490;7.338;2023-04-03T02:10:51;2.20;92.20
2763;DHT22;1389;51.490;7.338;2023-04-03T02:13:17;2.20;92.20
2763;DHT22;1389;51.490;7.338;2023-04-03T02:15:44;2.20;92.30
2763;DHT22;1389;51.490;7.338;2023-04-03T02:18:12;2.20;92.20
2763;DHT22;1389;51.490;7.338;2023-04-03T02:20:38;2.20;92.20
2763;DHT22;1389;51.490;7.338;2023-04-03T02:23:04;2.20;92.30
2763;DHT22;1389;51.490;7.338;2023-04-03T02:25:31;2.20;92.20
2763;DHT22;1389;51.490;7.338;2023-04-03T02:27:58;2.30;92.00
2763;DHT22;1389;51.490;7.338;2023-04-03T02:30:24;2.30;91.90
2763;DHT22;1389;51.490;7.338;2023-04-03T02:32:50;2.30;91.80
2763;DHT22;1389;51.490;7.338;2023-04-03T02:35:18;2.30;91.70
2763;DHT22;1389;51.490;7.338;2023-04-03T02:37:44;2.30;91.70
2763;DHT22;1389;51.490;7.338;2023-04-03T02:40:11;2.20;91.70
2763;DHT22;1389;51.490;7.338;2023-04-03T02:42:37;2.20;91.80
2763;DHT22;1389;51.490;7.338;2023-04-03T02:45:04;2.10;91.90
2763;DHT22;1389;51.490;7.338;2023-04-03T02:47:30;2.10;92.20
2763;DHT22;1389;51.490;7.338;2023-04-03T02:49:56;2.10;92.30
2763;DHT22;1389;51.490;7.338;2023-04-03T02:52:22;2.20;92.40
2763;DHT22;1389;51.490;7.338;2023-04-03T02:54:48;2.20;92.40
2763;DHT22;1389;51.490;7.338;2023-04-03T02:57:14;2.20;92.50
2763;DHT22;1389;51.490;7.338;2023-04-03T02:59:40;2.20;92.50
2763;DHT22;1389;51.490;7.338;2023-04-03T03:02:08;2.20;92.30
2763;DHT22;1389;51.490;7.338;2023-04-03T03:04:34;2.30;92.20
2763;DHT22;1389;51.490;7.338;2023-04-03T03:07:01;2.30;92.20
2763;DHT22;1389;51.490;7.338;2023-04-03T03:09:27;2.30;92.20
2763;DHT22;1389;51.490;7.338;2023-04-03T03:11:55;2.30;92.10
2763;DHT22;1389;51.490;7.338;2023-04-03T03:14:22;2.30;92.10
2763;DHT22;1389;51.490;7.338;2023-04-03T03:16:48;2.20;92.00
2763;DHT22;1389;51.490;7.338;2023-04-03T03:19:14;2.20;91.80
2763;DHT22;1389;51.490;7.338;2023-04-03T03:21:40;2.20;91.80
2763;DHT22;1389;51.490;7.338;2023-04-03T03:24:06;2.20;91.80
2763;DHT22;1389;51.490;7.338;2023-04-03T03:26:32;2.20;91.80
2763;DHT22;1389;51.490;7.338;2023-04-03T03:28:58;2.20;91.80
2763;DHT22;1389;51.490;7.338;2023-04-03T03:31:24;2.10;91.80
2763;DHT22;1389;51.490;7.338;2023-04-03T03:33:50;2.20;92.10
2763;DHT22;1389;51.490;7.338;2023-04-03T03:36:17;2.20;92.10
2763;DHT22;1389;51.490;7.338;2023-04-03T03:38:43;2.20;92.10
2763;DHT22;1389;51.490;7.338;2023-04-03T03:41:09;2.20;91.90
2763;DHT22;1389;51.490;7.338;2023-04-03T03:43:35;2.20;91.80
2763;DHT22;1389;51.490;7.338;2023-04-03T03:46:01;2.20;91.90
2763;DHT22;1389;51.490;7.338;2023-04-03T03:48:27;2.30;91.80
2763;DHT22;1389;51.490;7.338;2023-04-03T03:50:53;2.20;91.70
2763;DHT22;1389;51.490;7.338;2023-04-03T03:53:19;2.20;91.60
2763;DHT22;1389;51.490;7.338;2023-04-03T03:55:45;2.30;91.50
2763;DHT22;1389;51.490;7.338;2023-04-03T03:58:11;2.30;91.50
2763;DHT22;1389;51.490;7.338;2023-04-03T04:00:37;2.30;91.60
2763;DHT22;1389;51.490;7.338;2023-04-03T04:03:03;2.30;91.70
2763;DHT22;1389;51.490;7.338;2023-04-03T04:07:59;2.30;91.60
2763;DHT22;1389;51.490;7.338;2023-04-03T04:10:25;2.30;91.60
2763;DHT22;1389;51.490;7.338;2023-04-03T04:12:51;2.30;91.60
2763;DHT22;1389;51.490;7.338;2023-04-03T04:15:17;2.30;91.40
2763;DHT22;1389;51.490;7.338;2023-04-03T04:17:43;2.30;91.00
2763;DHT22;1389;51.490;7.338;2023-04-03T04:20:10;2.30;91.10
2763;DHT22;1389;51.490;7.338;2023-04-03T04:22:37;2.30;91.10
2763;DHT22;1389;51.490;7.338;2023-04-03T04:25:04;2.30;91.10
2763;DHT22;1389;51.490;7.338;2023-04-03T04:27:31;2.30;91.00
2763;DHT22;1389;51.490;7.338;2023-04-03T04:29:57;2.30;90.80
2763;DHT22;1389;51.490;7.338;2023-04-03T04:32:23;2.30;90.80
2763;DHT22;1389;51.490;7.338;2023-04-03T04:34:49;2.30;90.90
2763;DHT22;1389;51.490;7.338;2023-04-03T04:37:15;2.30;90.80
2763;DHT22;1389;51.490;7.338;2023-04-03T04:39:41;2.30;90.80
2763;DHT22;1389;51.490;7.338;2023-04-03T04:42:07;2.20;90.90
2763;DHT22;1389;51.490;7.338;2023-04-03T04:44:39;2.20;90.90
2763;DHT22;1389;51.490;7.338;2023-04-03T04:47:05;2.20;90.90
2763;DHT22;1389;51.490;7.338;2023-04-03T04:49:31;2.20;90.80
2763;DHT22;1389;51.490;7.338;2023-04-03T04:51:57;2.10;90.80
2763;DHT22;1389;51.490;7.338;2023-04-03T04:54:23;2.10;90.80
2763;DHT22;1389;51.490;7.338;2023-04-03T04:56:49;2.10;90.90
2763;DHT22;1389;51.490;7.338;2023-04-03T04:59:15;2.10;90.70
2763;DHT22;1389;51.490;7.338;2023-04-03T05:01:41;2.20;90.70
2763;DHT22;1389;51.490;7.338;2023-04-03T05:04:07;2.10;90.90
2763;DHT22;1389;51.490;7.338;2023-04-03T05:06:33;2.10;90.90
2763;DHT22;1389;51.490;7.338;2023-04-03T05:09:01;2.10;91.00
2763;DHT22;1389;51.490;7.338;2023-04-03T05:11:27;2.10;91.00
2763;DHT22;1389;51.490;7.338;2023-04-03T05:13:53;2.10;91.00
2763;DHT22;1389;51.490;7.338;2023-04-03T05:16:19;2.10;91.00
2763;DHT22;1389;51.490;7.338;2023-04-03T05:18:45;2.10;90.80
2763;DHT22;1389;51.490;7.338;2023-04-03T05:21:11;2.00;90.90
2763;DHT22;1389;51.490;7.338;2023-04-03T05:23:37;2.10;91.00
2763;DHT22;1389;51.490;7.338;2023-04-03T05:26:03;2.10;91.10
2763;DHT22;1389;51.490;7.338;2023-04-03T05:28:29;2.10;91.00
2763;DHT22;1389;51.490;7.338;2023-04-03T05:30:57;2.10;91.00
2763;DHT22;1389;51.490;7.338;2023-04-03T05:33:24;2.10;90.90
2763;DHT22;1389;51.490;7.338;2023-04-03T05:35:53;2.10;91.00
2763;DHT22;1389;51.490;7.338;2023-04-03T05:38:19;2.10;91.00
2763;DHT22;1389;51.490;7.338;2023-04-03T05:40:45;2.10;91.00
2763;DHT22;1389;51.490;7.338;2023-04-03T05:43:11;2.20;90.70
2763;DHT22;1389;51.490;7.338;2023-04-03T05:45:38;2.20;90.70
2763;DHT22;1389;51.490;7.338;2023-04-03T05:48:04;2.20;90.70
2763;DHT22;1389;51.490;7.338;2023-04-03T05:50:30;2.20;90.80
2763;DHT22;1389;51.490;7.338;2023-04-03T05:52:59;2.30;90.30
2763;DHT22;1389;51.490;7.338;2023-04-03T05:55:25;2.30;90.30
2763;DHT22;1389;51.490;7.338;2023-04-03T05:57:51;2.30;90.50
2763;DHT22;1389;51.490;7.338;2023-04-03T06:00:17;2.40;90.10
2763;DHT22;1389;51.490;7.338;2023-04-03T06:02:43;2.40;89.90
2763;DHT22;1389;51.490;7.338;2023-04-03T06:05:09;2.40;89.90
2763;DHT22;1389;51.490;7.338;2023-04-03T06:07:37;2.40;90.00
2763;DHT22;1389;51.490;7.338;2023-04-03T06:10:04;2.50;89.70
2763;DHT22;1389;51.490;7.338;2023-04-03T06:12:31;2.50;89.60
2763;DHT22;1389;51.490;7.338;2023-04-03T06:14:57;2.60;89.30
2763;DHT22;1389;51.490;7.338;2023-04-03T06:17:23;2.60;89.10
2763;DHT22;1389;51.490;7.338;2023-04-03T06:19:49;2.60;88.50
2763;DHT22;1389;51.490;7.338;2023-04-03T06:22:15;2.60;88.40
2763;DHT22;1389;51.490;7.338;2023-04-03T06:24:42;2.70;88.30
2763;DHT22;1389;51.490;7.338;2023-04-03T06:27:10;2.70;88.10
2763;DHT22;1389;51.490;7.338;2023-04-03T06:29:37;2.80;88.10
2763;DHT22;1389;51.490;7.338;2023-04-03T06:32:03;2.80;87.90
2763;DHT22;1389;51.490;7.338;2023-04-03T06:34:29;2.80;87.50
2763;DHT22;1389;51.490;7.338;2023-04-03T06:36:55;2.80;87.10
2763;DHT22;1389;51.490;7.338;2023-04-03T06:39:21;2.90;87.20
2763;DHT22;1389;51.490;7.338;2023-04-03T06:41:49;2.90;87.40
2763;DHT22;1389;51.490;7.338;2023-04-03T06:44:15;2.90;86.70
2763;DHT22;1389;51.490;7.338;2023-04-03T06:46:43;3.00;85.90
2763;DHT22;1389;51.490;7.338;2023-04-03T06:49:09;3.00;86.00
2763;DHT22;1389;51.490;7.338;2023-04-03T06:51:36;3.00;86.00
2763;DHT22;1389;51.490;7.338;2023-04-03T06:54:03;3.00;85.60
2763;DHT22;1389;51.490;7.338;2023-04-03T06:56:29;3.10;85.60
2763;DHT22;1389;51.490;7.338;2023-04-03T06:58:56;3.20;85.70
2763;DHT22;1389;51.490;7.338;2023-04-03T07:01:27;3.30;85.20
2763;DHT22;1389;51.490;7.338;2023-04-03T07:03:54;3.30;85.20
2763;DHT22;1389;51.490;7.338;2023-04-03T07:06:21;3.40;84.60
2763;DHT22;1389;51.490;7.338;2023-04-03T07:08:47;3.40;84.60
2763;DHT22;1389;51.490;7.338;2023-04-03T07:11:16;3.50;84.30
2763;DHT22;1389;51.490;7.338;2023-04-03T07:13:42;3.50;84.10
2763;DHT22;1389;51.490;7.338;2023-04-03T07:16:09;3.50;83.90
2763;DHT22;1389;51.490;7.338;2023-04-03T07:18:35;3.60;83.20
2763;DHT22;1389;51.490;7.338;2023-04-03T07:21:02;3.60;82.70
2763;DHT22;1389;51.490;7.338;2023-04-03T07:23:28;3.60;83.00
2763;DHT22;1389;51.490;7.338;2023-04-03T07:25:54;3.70;82.80
2763;DHT22;1389;51.490;7.338;2023-04-03T07:28:21;3.70;82.40
2763;DHT22;1389;51.490;7.338;2023-04-03T07:30:51;3.80;82.40
2763;DHT22;1389;51.490;7.338;2023-04-03T07:33:18;3.80;82.10
2763;DHT22;1389;51.490;7.338;2023-04-03T07:35:45;3.90;82.30
2763;DHT22;1389;51.490;7.338;2023-04-03T07:38:11;3.90;81.60
2763;DHT22;1389;51.490;7.338;2023-04-03T07:40:38;4.00;82.00
2763;DHT22;1389;51.490;7.338;2023-04-03T07:43:05;4.10;81.90
2763;DHT22;1389;51.490;7.338;2023-04-03T07:45:32;4.10;81.60
2763;DHT22;1389;51.490;7.338;2023-04-03T07:48:00;4.10;80.80
2763;DHT22;1389;51.490;7.338;2023-04-03T07:50:26;4.10;80.70
2763;DHT22;1389;51.490;7.338;2023-04-03T07:52:53;4.00;80.60
2763;DHT22;1389;51.490;7.338;2023-04-03T07:55:22;4.10;81.30
2763;DHT22;1389;51.490;7.338;2023-04-03T07:57:48;4.20;80.80
2763;DHT22;1389;51.490;7.338;2023-04-03T08:00:14;4.20;80.10
2763;DHT22;1389;51.490;7.338;2023-04-03T08:02:40;4.20;79.60
2763;DHT22;1389;51.490;7.338;2023-04-03T08:05:06;4.30;79.50
2763;DHT22;1389;51.490;7.338;2023-04-03T08:07:33;4.40;79.40
2763;DHT22;1389;51.490;7.338;2023-04-03T08:09:59;4.40;79.40
2763;DHT22;1389;51.490;7.338;2023-04-03T08:12:25;4.40;79.50
2763;DHT22;1389;51.490;7.338;2023-04-03T08:14:51;4.50;79.90
2763;DHT22;1389;51.490;7.338;2023-04-03T08:17:17;4.60;79.70
2763;DHT22;1389;51.490;7.338;2023-04-03T08:19:43;4.70;79.20
2763;DHT22;1389;51.490;7.338;2023-04-03T08:22:09;4.70;79.30
2763;DHT22;1389;51.490;7.338;2023-04-03T08:24:36;4.80;78.40
2763;DHT22;1389;51.490;7.338;2023-04-03T08:27:02;4.80;78.50
2763;DHT22;1389;51.490;7.338;2023-04-03T08:29:28;4.90;78.20
2763;DHT22;1389;51.490;7.338;2023-04-03T08:31:54;4.90;77.00
2763;DHT22;1389;51.490;7.338;2023-04-03T08:34:20;4.90;77.20
2763;DHT22;1389;51.490;7.338;2023-04-03T08:36:47;5.00;77.80
2763;DHT22;1389;51.490;7.338;2023-04-03T08:39:13;5.10;77.50
2763;DHT22;1389;51.490;7.338;2023-04-03T08:41:41;5.30;76.50
2763;DHT22;1389;51.490;7.338;2023-04-03T08:44:25;5.30;76.50
2763;DHT22;1389;51.490;7.338;2023-04-03T08:46:54;5.40;76.00
2763;DHT22;1389;51.490;7.338;2023-04-03T08:49:33;5.40;76.00
2763;DHT22;1389;51.490;7.338;2023-04-03T08:52:07;5.40;74.80
2763;DHT22;1389;51.490;7.338;2023-04-03T08:54:40;5.40;75.00
2763;DHT22;1389;51.490;7.338;2023-04-03T08:57:10;5.40;74.40
2763;DHT22;1389;51.490;7.338;2023-04-03T08:59:39;5.40;73.00
2763;DHT22;1389;51.490;7.338;2023-04-03T09:02:26;5.50;72.70
2763;DHT22;1389;51.490;7.338;2023-04-03T09:04:53;5.50;72.60
2763;DHT22;1389;51.490;7.338;2023-04-03T09:07:33;5.60;73.10
2763;DHT22;1389;51.490;7.338;2023-04-03T09:10:02;5.70;73.60
2763;DHT22;1389;51.490;7.338;2023-04-03T09:12:36;5.90;73.40
2763;DHT22;1389;51.490;7.338;2023-04-03T09:15:19;6.10;73.00
2763;DHT22;1389;51.490;7.338;2023-04-03T09:18:28;6.20;72.40
2763;DHT22;1389;51.490;7.338;2023-04-03T09:23:44;6.60;70.70
2763;DHT22;1389;51.490;7.338;2023-04-03T09:26:18;6.80;69.00
2763;DHT22;1389;51.490;7.338;2023-04-03T09:28:45;6.80;68.70
2763;DHT22;1389;51.490;7.338;2023-04-03T09:31:23;6.80;68.90
2763;DHT22;1389;51.490;7.338;2023-04-03T09:33:54;7.00;69.10
2763;DHT22;1389;51.490;7.338;2023-04-03T09:36:44;6.90;66.90
2763;DHT22;1389;51.490;7.338;2023-04-03T09:39:16;7.10;68.30
2763;DHT22;1389;51.490;7.338;2023-04-03T09:42:01;7.20;67.90
2763;DHT22;1389;51.490;7.338;2023-04-03T09:44:38;7.30;67.60
2763;DHT22;1389;51.490;7.338;2023-04-03T09:49:44;7.50;67.40
2763;DHT22;1389;51.490;7.338;2023-04-03T09:52:24;7.70;66.40
2763;DHT22;1389;51.490;7.338;2023-04-03T09:54:50;7.80;66.40
2763;DHT22;1389;51.490;7.338;2023-04-03T09:57:16;7.80;65.20
2763;DHT22;1389;51.490;7.338;2023-04-03T10:02:43;7.70;64.40
2763;DHT22;1389;51.490;7.338;2023-04-03T10:05:32;7.80;64.20
2763;DHT22;1389;51.490;7.338;2023-04-03T10:10:49;7.90;64.50
2763;DHT22;1389;51.490;7.338;2023-04-03T10:13:32;8.00;65.30
2763;DHT22;1389;51.490;7.338;2023-04-03T10:16:20;8.20;65.90
2763;DHT22;1389;51.490;7.338;2023-04-03T10:18:49;8.20;66.00
2763;DHT22;1389;51.490;7.338;2023-04-03T10:29:39;8.20;62.70
2763;DHT22;1389;51.490;7.338;2023-04-03T10:35:06;8.30;62.20
2763;DHT22;1389;51.490;7.338;2023-04-03T10:38:04;8.20;63.70
2763;DHT22;1389;51.490;7.338;2023-04-03T10:40:30;8.20;62.70
2763;DHT22;1389;51.490;7.338;2023-04-03T10:43:10;8.10;62.30
2763;DHT22;1389;51.490;7.338;2023-04-03T10:45:53;8.10;60.50
2763;DHT22;1389;51.490;7.338;2023-04-03T10:48:49;8.10;60.80
2763;DHT22;1389;51.490;7.338;2023-04-03T10:54:10;8.50;61.90
2763;DHT22;1389;51.490;7.338;2023-04-03T10:56:44;8.50;59.70
2763;DHT22;1389;51.490;7.338;2023-04-03T10:59:32;8.50;58.90
2763;DHT22;1389;51.490;7.338;2023-04-03T11:02:06;8.60;62.10
2763;DHT22;1389;51.490;7.338;2023-04-03T11:04:36;8.60;60.90
2763;DHT22;1389;51.490;7.338;2023-04-03T11:07:28;8.60;61.70
2763;DHT22;1389;51.490;7.338;2023-04-03T11:10:45;8.70;60.50
2763;DHT22;1389;51.490;7.338;2023-04-03T11:12:56;8.50;61.80
2763;DHT22;1389;51.490;7.338;2023-04-03T11:15:24;8.60;60.20
2763;DHT22;1389;51.490;7.338;2023-04-03T11:18:02;8.50;60.10
2763;DHT22;1389;51.490;7.338;2023-04-03T11:20:30;8.60;60.70
2763;DHT22;1389;51.490;7.338;2023-04-03T11:23:16;8.70;60.40
2763;DHT22;1389;51.490;7.338;2023-04-03T11:25:46;8.90;60.60
2763;DHT22;1389;51.490;7.338;2023-04-03T11:28:15;8.80;60.50
2763;DHT22;1389;51.490;7.338;2023-04-03T11:33:36;8.50;55.90
2763;DHT22;1389;51.490;7.338;2023-04-03T11:36:29;8.50;56.60
2763;DHT22;1389;51.490;7.338;2023-04-03T11:39:03;8.60;59.60
2763;DHT22;1389;51.490;7.338;2023-04-03T11:41:33;8.70;59.00
2763;DHT22;1389;51.490;7.338;2023-04-03T11:44:03;8.70;59.30
2763;DHT22;1389;51.490;7.338;2023-04-03T11:58:03;8.90;58.00
2763;DHT22;1389;51.490;7.338;2023-04-03T12:14:03;9.00;58.40
2763;DHT22;1389;51.490;7.338;2023-04-03T12:19:36;9.00;56.60
2763;DHT22;1389;51.490;7.338;2023-04-03T12:22:09;9.10;56.60
2763;DHT22;1389;51.490;7.338;2023-04-03T12:24:38;9.20;55.70
2763;DHT22;1389;51.490;7.338;2023-04-03T12:32:47;8.80;55.80
2763;DHT22;1389;51.490;7.338;2023-04-03T12:46:23;9.00;56.80
2763;DHT22;1389;51.490;7.338;2023-04-03T12:48:51;9.20;56.90
2763;DHT22;1389;51.490;7.338;2023-04-03T12:58:53;9.60;55.80
2763;DHT22;1389;51.490;7.338;2023-04-03T13:01:24;9.50;56.70
2763;DHT22;1389;51.490;7.338;2023-04-03T13:03:55;9.50;56.40
2763;DHT22;1389;51.490;7.338;2023-04-03T13:06:27;9.50;57.20
2763;DHT22;1389;51.490;7.338;2023-04-03T13:08:59;9.50;57.30
2763;DHT22;1389;51.490;7.338;2023-04-03T13:11:32;9.60;56.70
2763;DHT22;1389;51.490;7.338;2023-04-03T13:14:03;9.60;56.90
2763;DHT22;1389;51.490;7.338;2023-04-03T13:16:31;9.60;57.40
2763;DHT22;1389;51.490;7.338;2023-04-03T13:18:58;9.60;56.30
2763;DHT22;1389;51.490;7.338;2023-04-03T13:21:30;9.60;55.40
2763;DHT22;1389;51.490;7.338;2023-04-03T13:23:59;9.70;54.60
2763;DHT22;1389;51.490;7.338;2023-04-03T13:26:31;9.70;56.30
2763;DHT22;1389;51.490;7.338;2023-04-03T13:29:38;9.70;56.30
2763;DHT22;1389;51.490;7.338;2023-04-03T13:32:05;9.70;56.20
2763;DHT22;1389;51.490;7.338;2023-04-03T13:34:38;9.70;55.20
2763;DHT22;1389;51.490;7.338;2023-04-03T13:37:06;9.60;55.70
2763;DHT22;1389;51.490;7.338;2023-04-03T13:39:36;9.50;53.60
2763;DHT22;1389;51.490;7.338;2023-04-03T13:42:24;9.50;55.80
2763;DHT22;1389;51.490;7.338;2023-04-03T13:47:44;9.80;55.90
2763;DHT22;1389;51.490;7.338;2023-04-03T13:52:53;9.80;55.00
2763;DHT22;1389;51.490;7.338;2023-04-03T13:55:24;9.90;55.40
2763;DHT22;1389;51.490;7.338;2023-04-03T14:00:35;10.00;56.60
2763;DHT22;1389;51.490;7.338;2023-04-03T14:03:37;9.90;54.70
2763;DHT22;1389;51.490;7.338;2023-04-03T14:05:59;9.90;54.60
2763;DHT22;1389;51.490;7.338;2023-04-03T14:08:27;10.00;55.30
2763;DHT22;1389;51.490;7.338;2023-04-03T14:10:53;10.00;55.30
2763;DHT22;1389;51.490;7.338;2023-04-03T14:13:20;10.00;55.30
2763;DHT22;1389;51.490;7.338;2023-04-03T14:15:47;10.00;57.00
2763;DHT22;1389;51.490;7.338;2023-04-03T14:18:17;10.10;55.10
2763;DHT22;1389;51.490;7.338;2023-04-03T14:20:44;10.10;56.30
2763;DHT22;1389;51.490;7.338;2023-04-03T14:23:10;10.00;53.90
2763;DHT22;1389;51.490;7.338;2023-04-03T14:25:37;10.00;53.30
2763;DHT22;1389;51.490;7.338;2023-04-03T14:28:32;10.00;54.70
2763;DHT22;1389;51.490;7.338;2023-04-03T14:30:59;10.00;54.50
2763;DHT22;1389;51.490;7.338;2023-04-03T14:35:53;10.00;53.20
2763;DHT22;1389;51.490;7.338;2023-04-03T14:38:28;9.80;53.10
2763;DHT22;1389;51.490;7.338;2023-04-03T14:40:56;9.70;53.80
2763;DHT22;1389;51.490;7.338;2023-04-03T14:45:49;9.70;56.40
2763;DHT22;1389;51.490;7.338;2023-04-03T14:48:22;9.80;56.60
2763;DHT22;1389;51.490;7.338;2023-04-03T14:50:50;9.80;55.10
2763;DHT22;1389;51.490;7.338;2023-04-03T14:53:17;9.80;55.10
2763;DHT22;1389;51.490;7.338;2023-04-03T14:55:45;9.70;55.00
2763;DHT22;1389;51.490;7.338;2023-04-03T14:58:13;9.70;55.10
2763;DHT22;1389;51.490;7.338;2023-04-03T15:00:40;9.70;55.10
2763;DHT22;1389;51.490;7.338;2023-04-03T15:03:16;9.70;54.70
2763;DHT22;1389;51.490;7.338;2023-04-03T15:05:44;9.80;56.00
2763;DHT22;1389;51.490;7.338;2023-04-03T15:08:20;9.80;56.40
2763;DHT22;1389;51.490;7.338;2023-04-03T15:10:47;9.90;55.90
2763;DHT22;1389;51.490;7.338;2023-04-03T15:13:14;9.90;55.90
2763;DHT22;1389;51.490;7.338;2023-04-03T15:15:41;9.90;54.60
2763;DHT22;1389;51.490;7.338;2023-04-03T15:18:14;9.90;54.20
2763;DHT22;1389;51.490;7.338;2023-04-03T15:20:40;10.00;55.80
2763;DHT22;1389;51.490;7.338;2023-04-03T15:23:08;10.10;55.50
2763;DHT22;1389;51.490;7.338;2023-04-03T15:25:34;10.00;55.10
2763;DHT22;1389;51.490;7.338;2023-04-03T15:30:26;9.90;55.80
2763;DHT22;1389;51.490;7.338;2023-04-03T15:32:52;9.80;53.80
2763;DHT22;1389;51.490;7.338;2023-04-03T15:35:19;9.70;53.90
2763;DHT22;1389;51.490;7.338;2023-04-03T15:37:45;9.60;54.10
2763;DHT22;1389;51.490;7.338;2023-04-03T15:40:11;9.60;54.70
2763;DHT22;1389;51.490;7.338;2023-04-03T15:42:37;9.50;55.10
2763;DHT22;1389;51.490;7.338;2023-04-03T15:45:04;9.50;55.00
2763;DHT22;1389;51.490;7.338;2023-04-03T15:47:31;9.50;55.00
2763;DHT22;1389;51.490;7.338;2023-04-03T15:49:57;9.40;54.10
2763;DHT22;1389;51.490;7.338;2023-04-03T15:52:23;9.40;55.40
2763;DHT22;1389;51.490;7.338;2023-04-03T15:54:49;9.50;55.90
2763;DHT22;1389;51.490;7.338;2023-04-03T15:57:15;9.40;55.10
2763;DHT22;1389;51.490;7.338;2023-04-03T15:59:41;9.40;55.40
2763;DHT22;1389;51.490;7.338;2023-04-03T16:02:10;9.40;55.30
2763;DHT22;1389;51.490;7.338;2023-04-03T16:04:38;9.40;55.60
2763;DHT22;1389;51.490;7.338;2023-04-03T16:07:04;9.30;53.90
2763;DHT22;1389;51.490;7.338;2023-04-03T16:09:33;9.30;54.10
2763;DHT22;1389;51.490;7.338;2023-04-03T16:11:59;9.30;54.50
2763;DHT22;1389;51.490;7.338;2023-04-03T16:14:26;9.20;55.10
2763;DHT22;1389;51.490;7.338;2023-04-03T16:16:53;9.20;53.90
2763;DHT22;1389;51.490;7.338;2023-04-03T16:19:20;9.20;54.60
2763;DHT22;1389;51.490;7.338;2023-04-03T16:21:46;9.20;54.40
2763;DHT22;1389;51.490;7.338;2023-04-03T16:24:12;9.10;53.80
2763;DHT22;1389;51.490;7.338;2023-04-03T16:26:38;9.00;53.80
2763;DHT22;1389;51.490;7.338;2023-04-03T16:29:04;9.10;54.20
2763;DHT22;1389;51.490;7.338;2023-04-03T16:31:32;9.20;55.40
2763;DHT22;1389;51.490;7.338;2023-04-03T16:34:00;9.20;55.30
2763;DHT22;1389;51.490;7.338;2023-04-03T16:36:26;9.20;54.80
2763;DHT22;1389;51.490;7.338;2023-04-03T16:38:52;9.10;54.90
2763;DHT22;1389;51.490;7.338;2023-04-03T16:41:18;9.20;55.00
2763;DHT22;1389;51.490;7.338;2023-04-03T16:43:44;9.10;55.80
2763;DHT22;1389;51.490;7.338;2023-04-03T16:46:13;9.10;55.70
2763;DHT22;1389;51.490;7.338;2023-04-03T16:48:39;8.90;54.40
2763;DHT22;1389;51.490;7.338;2023-04-03T16:51:05;8.90;55.10
2763;DHT22;1389;51.490;7.338;2023-04-03T16:53:31;8.90;55.90
2763;DHT22;1389;51.490;7.338;2023-04-03T16:55:58;8.90;54.50
2763;DHT22;1389;51.490;7.338;2023-04-03T16:58:24;8.70;54.70
2763;DHT22;1389;51.490;7.338;2023-04-03T17:00:50;8.70;54.90
2763;DHT22;1389;51.490;7.338;2023-04-03T17:03:17;8.70;54.80
2763;DHT22;1389;51.490;7.338;2023-04-03T17:05:47;8.70;55.00
2763;DHT22;1389;51.490;7.338;2023-04-03T17:08:13;8.60;55.00
2763;DHT22;1389;51.490;7.338;2023-04-03T17:10:39;8.50;55.20
2763;DHT22;1389;51.490;7.338;2023-04-03T17:13:05;8.50;55.40
2763;DHT22;1389;51.490;7.338;2023-04-03T17:15:31;8.50;55.70
2763;DHT22;1389;51.490;7.338;2023-04-03T17:17:57;8.40;54.60
2763;DHT22;1389;51.490;7.338;2023-04-03T17:20:23;8.30;55.60
2763;DHT22;1389;51.490;7.338;2023-04-03T17:22:50;8.30;57.20
2763;DHT22;1389;51.490;7.338;2023-04-03T17:25:16;8.30;57.60
2763;DHT22;1389;51.490;7.338;2023-04-03T17:27:42;8.30;55.90
2763;DHT22;1389;51.490;7.338;2023-04-03T17:30:08;8.30;56.00
2763;DHT22;1389;51.490;7.338;2023-04-03T17:32:34;8.20;56.50
2763;DHT22;1389;51.490;7.338;2023-04-03T17:35:01;8.20;56.20
2763;DHT22;1389;51.490;7.338;2023-04-03T17:37:27;8.10;56.10
2763;DHT22;1389;51.490;7.338;2023-04-03T17:39:53;8.10;57.20
2763;DHT22;1389;51.490;7.338;2023-04-03T17:42:19;8.00;57.00
2763;DHT22;1389;51.490;7.338;2023-04-03T17:44:46;7.90;56.30
2763;DHT22;1389;51.490;7.338;2023-04-03T17:47:12;7.80;57.00
2763;DHT22;1389;51.490;7.338;2023-04-03T17:49:38;7.80;57.20
2763;DHT22;1389;51.490;7.338;2023-04-03T17:52:04;7.80;57.00
2763;DHT22;1389;51.490;7.338;2023-04-03T17:54:30;7.70;56.30
2763;DHT22;1389;51.490;7.338;2023-04-03T17:56:56;7.70;56.00
2763;DHT22;1389;51.490;7.338;2023-04-03T17:59:22;7.70;56.80
2763;DHT22;1389;51.490;7.338;2023-04-03T18:01:48;7.70;58.40
2763;DHT22;1389;51.490;7.338;2023-04-03T18:04:14;7.70;57.70
2763;DHT22;1389;51.490;7.338;2023-04-03T18:06:44;7.60;57.60
2763;DHT22;1389;51.490;7.338;2023-04-03T18:09:14;7.60;57.70